nws-alerts: Checking more than four warning/county codes can delay the loading of your pages. You should use a cron job to get the data.

Nearby METAR Reports

 

KLBE - Latrobe/Westmorl, Pennsylvania, USA
Distance from station: SE 16mi, 26km
Updated: Thu, 18-Oct-2018 12:50pm EDT
NOT Current
Partly cloudy
Partly cloudy
 Wind from NW
Wind: NW 12 mph , 19 km/h
Temperature: 46°F , 8°C
Wind Chill: 40°F , 4°C
Dew Point: 28°F , -2°C
Humidity: 50%
Barometer: 30.47 inHg , 1031.8 hPa
Clouds: Partly cloudy
Visibility: 10 miles , 16 km
Cloud details: Partly cloudy 4000 ft
2018/10/18 16:50 KLBE 181650Z 31010KT 10SM SCT040 08/M02 A3047
KAGC - Pittsburgh/Alleg, Pennsylvania, USA
Distance from station: WSW 18mi, 30km
Updated: Thu, 18-Oct-2018 1:53pm EDT
Clear
Clear
 Wind from NNW
Wind: NNW 8 mph , 13 km/h, Gust: 17 mph , 28 km/h
Temperature: 48°F , 9°C
Wind Chill: 44°F , 7°C
Dew Point: 28°F , -2°C
Humidity: 46%
Barometer: 30.45 inHg , 1031.2 hPa
Clouds: Clear
Visibility: 10 miles , 16 km
2018/10/18 17:53 KAGC 181753Z 34007G15KT 310V020 10SM CLR 09/M02 A3045 RMK AO2 SLP323 T00891022 10089 20017 58005
 
KBTP - Butler Co., Pennsylvania, USA
Distance from station: NW 29mi, 47km
Updated: Thu, 18-Oct-2018 1:56pm EDT
Clear
Clear
 Wind from WSW
Wind: WSW 7 mph , 11 km/h
Temperature: 45°F , 7°C
Wind Chill: 41°F , 5°C
Dew Point: 28°F , -2°C
Humidity: 53%
Barometer: 30.46 inHg , 1031.5 hPa
Clouds: Clear
Visibility: 10 miles , 16 km
2018/10/18 17:56 KBTP 181756Z AUTO 25006KT 10SM CLR 07/M02 A3046 RMK AO2 SLP328 T00721022 10078 20017 58005
KIDI - Indiana/Stewart, Pennsylvania, USA
Distance from station: ENE 29mi, 47km
Updated: Thu, 18-Oct-2018 2:15pm EDT
Partly cloudy
Partly cloudy
 Wind from varies
Wind: varies 5 mph , 7 km/h, Gust: 15 mph , 24 km/h
Temperature: 46°F , 8°C
Wind Chill: 44°F , 7°C
Dew Point: 30°F , -1°C
Humidity: 53%
Barometer: 30.46 inHg , 1031.5 hPa
Clouds: Partly cloudy
Visibility: 10 miles , 16 km
Cloud details: Partly cloudy 4200 ft
2018/10/18 18:15 KIDI 181815Z AUTO VRB04G13KT 10SM SCT042 08/M01 A3046 RMK A01
 
KPIT - Pittsburgh, Pennsylvania, USA
Distance from station: W 36mi, 57km
Updated: Thu, 18-Oct-2018 1:51pm EDT
Few Clouds
Few Clouds
 
Temperature: 46°F , 8°C
Dew Point: 27°F , -3°C
Humidity: 46%
Barometer: 30.46 inHg , 1031.5 hPa
Clouds: Few Clouds
Visibility: 10 miles , 16 km
Cloud details: Few Clouds 3200 ft
2018/10/18 17:51 KPIT 181751Z 10SM FEW032 08/M03 A3046 RMK AO2 SLP329 T00831028 10083 20006 58005
KJST - Johnstown, Pennsylvania, USA
Distance from station: ESE 41mi, 66km
Updated: Thu, 18-Oct-2018 1:54pm EDT
Partly cloudy
Partly cloudy
 Wind from WNW
Wind: WNW 13 mph , 20 km/h
Temperature: 43°F , 6°C
Wind Chill: 36°F , 2°C
Dew Point: 28°F , -2°C
Humidity: 57%
Barometer: 30.40 inHg , 1029.5 hPa
Clouds: Partly cloudy
Visibility: 10 miles , 16 km
Cloud details: Partly cloudy 3600 ft
2018/10/18 17:54 KJST 181754Z AUTO 30011KT 10SM SCT036 06/M02 A3040 RMK AO2 SLP309 T00611022 10072 20011 58002
 
KAFJ - Washington, Pennsylvania, USA
Distance from station: WSW 42mi, 68km
Updated: Thu, 18-Oct-2018 1:56pm EDT
Clear
Clear
 Wind from WSW
Wind: WSW 9 mph , 15 km/h
Temperature: 48°F , 9°C
Wind Chill: 44°F , 7°C
Dew Point: 28°F , -2°C
Humidity: 46%
Barometer: 30.50 inHg , 1032.8 hPa
Clouds: Clear
Visibility: 10 miles , 16 km
2018/10/18 17:56 KAFJ 181756Z AUTO 24008KT 210V270 10SM CLR 09/M02 A3050 RMK AO2 SLP333 T00891017 10089 20011 58007
KBVI - Beaver Falls Arp, Pennsylvania, USA
Distance from station: WNW 48mi, 77km
Updated: Thu, 18-Oct-2018 1:47pm EDT
Clear
Clear
 Wind from NW
Wind: NW 6 mph , 9 km/h
Temperature: 46°F , 8°C
Wind Chill: 43°F , 6°C
Dew Point: 28°F , -2°C
Humidity: 50%
Barometer: 30.47 inHg , 1031.8 hPa
Clouds: Clear
Visibility: 10 miles , 16 km
2018/10/18 17:47 KBVI 181747Z 32005KT 10SM CLR 08/M02 A3047 RMK RUNWAY 28 IN USE